sensor_id;sensor_type;location;lat;lon;timestamp;temperature;humidity
31675;DHT22;18276;45.520;11.018;2023-06-14T00:00:48;20.30;82.30
31675;DHT22;18276;45.520;11.018;2023-06-14T00:03:15;20.30;82.50
31675;DHT22;18276;45.520;11.018;2023-06-14T00:05:44;20.30;82.60
31675;DHT22;18276;45.520;11.018;2023-06-14T00:08:13;20.30;82.80
31675;DHT22;18276;45.520;11.018;2023-06-14T00:10:41;20.20;82.90
31675;DHT22;18276;45.520;11.018;2023-06-14T00:13:09;20.20;83.00
31675;DHT22;18276;45.520;11.018;2023-06-14T00:15:37;20.20;83.20
31675;DHT22;18276;45.520;11.018;2023-06-14T00:18:04;20.10;83.30
31675;DHT22;18276;45.520;11.018;2023-06-14T00:20:32;20.10;83.50
31675;DHT22;18276;45.520;11.018;2023-06-14T00:23:00;20.10;83.70
31675;DHT22;18276;45.520;11.018;2023-06-14T00:25:28;20.10;83.60
31675;DHT22;18276;45.520;11.018;2023-06-14T00:27:57;20.10;83.70
31675;DHT22;18276;45.520;11.018;2023-06-14T00:30:25;20.00;83.60
31675;DHT22;18276;45.520;11.018;2023-06-14T00:32:52;20.00;83.60
31675;DHT22;18276;45.520;11.018;2023-06-14T00:35:19;20.00;83.70
31675;DHT22;18276;45.520;11.018;2023-06-14T00:37:46;20.00;83.80
31675;DHT22;18276;45.520;11.018;2023-06-14T00:40:13;20.00;83.90
31675;DHT22;18276;45.520;11.018;2023-06-14T00:42:41;20.00;84.00
31675;DHT22;18276;45.520;11.018;2023-06-14T00:45:09;20.00;83.90
31675;DHT22;18276;45.520;11.018;2023-06-14T00:47:37;20.00;83.80
31675;DHT22;18276;45.520;11.018;2023-06-14T00:50:07;20.00;83.70
31675;DHT22;18276;45.520;11.018;2023-06-14T00:52:34;20.00;83.50
31675;DHT22;18276;45.520;11.018;2023-06-14T00:55:02;20.00;83.50
31675;DHT22;18276;45.520;11.018;2023-06-14T00:57:29;20.00;83.70
31675;DHT22;18276;45.520;11.018;2023-06-14T00:59:56;20.00;83.80
31675;DHT22;18276;45.520;11.018;2023-06-14T01:02:23;19.90;84.10
31675;DHT22;18276;45.520;11.018;2023-06-14T01:04:53;19.90;84.50
31675;DHT22;18276;45.520;11.018;2023-06-14T01:11:16;19.90;84.90
31675;DHT22;18276;45.520;11.018;2023-06-14T01:15:59;19.70;85.30
31675;DHT22;18276;45.520;11.018;2023-06-14T01:18:28;19.70;85.70
31675;DHT22;18276;45.520;11.018;2023-06-14T01:20:56;19.70;86.10
31675;DHT22;18276;45.520;11.018;2023-06-14T01:23:24;19.60;86.40
31675;DHT22;18276;45.520;11.018;2023-06-14T01:25:52;19.60;86.70
31675;DHT22;18276;45.520;11.018;2023-06-14T01:28:25;19.50;87.00
31675;DHT22;18276;45.520;11.018;2023-06-14T01:30:54;19.50;87.30
31675;DHT22;18276;45.520;11.018;2023-06-14T01:33:24;19.40;87.50
31675;DHT22;18276;45.520;11.018;2023-06-14T01:35:53;19.40;87.60
31675;DHT22;18276;45.520;11.018;2023-06-14T01:38:24;19.40;87.60
31675;DHT22;18276;45.520;11.018;2023-06-14T01:40:54;19.30;87.60
31675;DHT22;18276;45.520;11.018;2023-06-14T01:43:25;19.30;87.70
31675;DHT22;18276;45.520;11.018;2023-06-14T01:45:54;19.20;87.60
31675;DHT22;18276;45.520;11.018;2023-06-14T01:48:23;19.20;87.70
31675;DHT22;18276;45.520;11.018;2023-06-14T01:50:50;19.20;87.70
31675;DHT22;18276;45.520;11.018;2023-06-14T01:53:19;19.20;87.80
31675;DHT22;18276;45.520;11.018;2023-06-14T01:55:47;19.20;88.00
31675;DHT22;18276;45.520;11.018;2023-06-14T01:58:16;19.20;88.00
31675;DHT22;18276;45.520;11.018;2023-06-14T02:00:46;19.20;88.20
31675;DHT22;18276;45.520;11.018;2023-06-14T02:03:14;19.10;88.30
31675;DHT22;18276;45.520;11.018;2023-06-14T02:05:42;19.10;88.50
31675;DHT22;18276;45.520;11.018;2023-06-14T02:08:09;19.10;88.70
31675;DHT22;18276;45.520;11.018;2023-06-14T02:10:37;19.10;88.70
31675;DHT22;18276;45.520;11.018;2023-06-14T02:13:04;19.00;88.70
31675;DHT22;18276;45.520;11.018;2023-06-14T02:15:31;19.00;88.80
31675;DHT22;18276;45.520;11.018;2023-06-14T02:18:04;19.00;89.10
31675;DHT22;18276;45.520;11.018;2023-06-14T02:20:33;18.90;89.10
31675;DHT22;18276;45.520;11.018;2023-06-14T02:23:00;18.90;89.20
31675;DHT22;18276;45.520;11.018;2023-06-14T02:25:30;18.80;89.20
31675;DHT22;18276;45.520;11.018;2023-06-14T02:27:58;18.80;89.40
31675;DHT22;18276;45.520;11.018;2023-06-14T02:30:25;18.80;89.60
31675;DHT22;18276;45.520;11.018;2023-06-14T02:32:55;18.80;89.60
31675;DHT22;18276;45.520;11.018;2023-06-14T02:35:23;18.70;89.70
31675;DHT22;18276;45.520;11.018;2023-06-14T02:37:55;18.70;89.80
31675;DHT22;18276;45.520;11.018;2023-06-14T02:40:22;18.70;90.00
31675;DHT22;18276;45.520;11.018;2023-06-14T02:42:49;18.70;90.00
31675;DHT22;18276;45.520;11.018;2023-06-14T02:45:17;18.70;90.00
31675;DHT22;18276;45.520;11.018;2023-06-14T02:47:45;18.70;90.00
31675;DHT22;18276;45.520;11.018;2023-06-14T02:50:12;18.70;90.10
31675;DHT22;18276;45.520;11.018;2023-06-14T02:52:40;18.60;90.10
31675;DHT22;18276;45.520;11.018;2023-06-14T02:55:08;18.60;90.20
31675;DHT22;18276;45.520;11.018;2023-06-14T02:57:37;18.60;90.30
31675;DHT22;18276;45.520;11.018;2023-06-14T03:00:06;18.60;90.50
31675;DHT22;18276;45.520;11.018;2023-06-14T03:02:37;18.50;90.60
31675;DHT22;18276;45.520;11.018;2023-06-14T03:05:05;18.50;90.70
31675;DHT22;18276;45.520;11.018;2023-06-14T03:07:34;18.50;90.80
31675;DHT22;18276;45.520;11.018;2023-06-14T03:10:03;18.50;90.90
31675;DHT22;18276;45.520;11.018;2023-06-14T03:12:31;18.40;90.90
31675;DHT22;18276;45.520;11.018;2023-06-14T03:14:58;18.50;91.00
31675;DHT22;18276;45.520;11.018;2023-06-14T03:17:31;18.40;91.00
31675;DHT22;18276;45.520;11.018;2023-06-14T03:20:02;18.50;91.10
31675;DHT22;18276;45.520;11.018;2023-06-14T03:22:30;18.40;91.00
31675;DHT22;18276;45.520;11.018;2023-06-14T03:24:58;18.50;91.00
31675;DHT22;18276;45.520;11.018;2023-06-14T03:27:28;18.50;91.00
31675;DHT22;18276;45.520;11.018;2023-06-14T03:29:57;18.60;91.20
31675;DHT22;18276;45.520;11.018;2023-06-14T03:32:24;18.60;90.80
31675;DHT22;18276;45.520;11.018;2023-06-14T03:34:51;18.60;90.80
31675;DHT22;18276;45.520;11.018;2023-06-14T03:37:22;18.70;90.80
31675;DHT22;18276;45.520;11.018;2023-06-14T03:39:49;18.70;90.80
31675;DHT22;18276;45.520;11.018;2023-06-14T03:42:21;18.70;90.80
31675;DHT22;18276;45.520;11.018;2023-06-14T03:44:48;18.70;90.80
31675;DHT22;18276;45.520;11.018;2023-06-14T03:47:18;18.70;90.80
31675;DHT22;18276;45.520;11.018;2023-06-14T03:49:46;18.80;90.70
31675;DHT22;18276;45.520;11.018;2023-06-14T03:52:13;18.80;90.70
31675;DHT22;18276;45.520;11.018;2023-06-14T03:54:43;18.80;90.60
31675;DHT22;18276;45.520;11.018;2023-06-14T03:57:14;18.90;90.50
31675;DHT22;18276;45.520;11.018;2023-06-14T03:59:43;19.00;90.40
31675;DHT22;18276;45.520;11.018;2023-06-14T04:02:11;19.00;90.30
31675;DHT22;18276;45.520;11.018;2023-06-14T04:04:38;19.00;90.30
31675;DHT22;18276;45.520;11.018;2023-06-14T04:07:05;19.10;90.30
31675;DHT22;18276;45.520;11.018;2023-06-14T04:09:36;19.10;90.20
31675;DHT22;18276;45.520;11.018;2023-06-14T04:12:03;19.10;90.20
31675;DHT22;18276;45.520;11.018;2023-06-14T04:14:31;19.20;90.20
31675;DHT22;18276;45.520;11.018;2023-06-14T04:17:02;19.20;90.20
31675;DHT22;18276;45.520;11.018;2023-06-14T04:19:30;19.30;90.10
31675;DHT22;18276;45.520;11.018;2023-06-14T04:21:58;19.30;90.00
31675;DHT22;18276;45.520;11.018;2023-06-14T04:24:30;19.40;89.70
31675;DHT22;18276;45.520;11.018;2023-06-14T04:26:59;19.40;89.50
31675;DHT22;18276;45.520;11.018;2023-06-14T04:29:28;19.50;89.30
31675;DHT22;18276;45.520;11.018;2023-06-14T04:32:00;19.50;89.10
31675;DHT22;18276;45.520;11.018;2023-06-14T04:34:28;19.60;89.00
31675;DHT22;18276;45.520;11.018;2023-06-14T04:37:02;19.70;88.80
31675;DHT22;18276;45.520;11.018;2023-06-14T04:39:36;19.70;88.60
31675;DHT22;18276;45.520;11.018;2023-06-14T04:42:03;19.80;88.50
31675;DHT22;18276;45.520;11.018;2023-06-14T04:44:33;19.80;88.20
31675;DHT22;18276;45.520;11.018;2023-06-14T04:47:02;19.90;87.80
31675;DHT22;18276;45.520;11.018;2023-06-14T04:49:30;20.00;87.50
31675;DHT22;18276;45.520;11.018;2023-06-14T04:52:00;20.00;87.20
31675;DHT22;18276;45.520;11.018;2023-06-14T04:54:41;20.10;86.90
31675;DHT22;18276;45.520;11.018;2023-06-14T04:57:12;20.20;86.60
31675;DHT22;18276;45.520;11.018;2023-06-14T04:59:42;20.20;86.40
31675;DHT22;18276;45.520;11.018;2023-06-14T05:02:11;20.30;86.10
31675;DHT22;18276;45.520;11.018;2023-06-14T05:04:38;20.40;85.80
31675;DHT22;18276;45.520;11.018;2023-06-14T05:07:10;20.50;85.80
31675;DHT22;18276;45.520;11.018;2023-06-14T05:09:37;20.50;86.50
31675;DHT22;18276;45.520;11.018;2023-06-14T05:12:05;20.70;85.70
31675;DHT22;18276;45.520;11.018;2023-06-14T05:14:34;20.70;85.40
31675;DHT22;18276;45.520;11.018;2023-06-14T05:17:02;20.80;85.00
31675;DHT22;18276;45.520;11.018;2023-06-14T05:19:30;21.00;84.40
31675;DHT22;18276;45.520;11.018;2023-06-14T05:21:57;21.10;84.00
31675;DHT22;18276;45.520;11.018;2023-06-14T05:24:24;21.30;83.60
31675;DHT22;18276;45.520;11.018;2023-06-14T05:26:51;21.50;82.90
31675;DHT22;18276;45.520;11.018;2023-06-14T05:29:18;21.70;82.10
31675;DHT22;18276;45.520;11.018;2023-06-14T05:31:45;21.90;81.30
31675;DHT22;18276;45.520;11.018;2023-06-14T05:34:12;22.30;80.30
31675;DHT22;18276;45.520;11.018;2023-06-14T05:36:40;22.50;79.20
31675;DHT22;18276;45.520;11.018;2023-06-14T05:39:07;22.60;78.50
31675;DHT22;18276;45.520;11.018;2023-06-14T05:41:35;22.60;78.20
31675;DHT22;18276;45.520;11.018;2023-06-14T05:44:02;22.50;78.10
31675;DHT22;18276;45.520;11.018;2023-06-14T05:46:29;22.40;78.30
31675;DHT22;18276;45.520;11.018;2023-06-14T05:48:56;22.40;78.50
31675;DHT22;18276;45.520;11.018;2023-06-14T05:51:23;22.30;78.40
31675;DHT22;18276;45.520;11.018;2023-06-14T05:53:52;22.30;78.50
31675;DHT22;18276;45.520;11.018;2023-06-14T05:56:19;22.30;78.50
31675;DHT22;18276;45.520;11.018;2023-06-14T05:58:46;22.30;78.40
31675;DHT22;18276;45.520;11.018;2023-06-14T06:01:14;22.30;78.40
31675;DHT22;18276;45.520;11.018;2023-06-14T06:03:42;22.30;78.50
31675;DHT22;18276;45.520;11.018;2023-06-14T06:06:13;22.30;78.90
31675;DHT22;18276;45.520;11.018;2023-06-14T06:08:40;22.30;79.00
31675;DHT22;18276;45.520;11.018;2023-06-14T06:11:07;22.30;78.90
31675;DHT22;18276;45.520;11.018;2023-06-14T06:13:35;22.20;79.00
31675;DHT22;18276;45.520;11.018;2023-06-14T06:16:03;22.20;79.20
31675;DHT22;18276;45.520;11.018;2023-06-14T06:18:30;22.10;79.50
31675;DHT22;18276;45.520;11.018;2023-06-14T06:20:57;22.10;79.80
31675;DHT22;18276;45.520;11.018;2023-06-14T06:23:24;22.10;80.20
31675;DHT22;18276;45.520;11.018;2023-06-14T06:25:52;22.00;80.50
31675;DHT22;18276;45.520;11.018;2023-06-14T06:28:19;21.90;80.90
31675;DHT22;18276;45.520;11.018;2023-06-14T06:30:46;21.90;81.00
31675;DHT22;18276;45.520;11.018;2023-06-14T06:33:13;22.00;81.10
31675;DHT22;18276;45.520;11.018;2023-06-14T06:35:41;22.00;81.40
31675;DHT22;18276;45.520;11.018;2023-06-14T06:38:08;22.00;81.60
31675;DHT22;18276;45.520;11.018;2023-06-14T06:40:37;22.10;81.90
31675;DHT22;18276;45.520;11.018;2023-06-14T06:43:04;22.10;82.20
31675;DHT22;18276;45.520;11.018;2023-06-14T06:45:40;22.10;82.00
31675;DHT22;18276;45.520;11.018;2023-06-14T06:48:07;22.20;81.90
31675;DHT22;18276;45.520;11.018;2023-06-14T06:50:36;22.20;81.60
31675;DHT22;18276;45.520;11.018;2023-06-14T06:53:03;22.30;81.40
31675;DHT22;18276;45.520;11.018;2023-06-14T06:55:30;22.40;81.30
31675;DHT22;18276;45.520;11.018;2023-06-14T06:57:57;22.50;80.90
31675;DHT22;18276;45.520;11.018;2023-06-14T07:00:25;22.70;80.70
31675;DHT22;18276;45.520;11.018;2023-06-14T07:02:54;22.80;80.40
31675;DHT22;18276;45.520;11.018;2023-06-14T07:05:22;22.90;79.50
31675;DHT22;18276;45.520;11.018;2023-06-14T07:07:49;23.00;78.90
31675;DHT22;18276;45.520;11.018;2023-06-14T07:10:16;23.10;78.10
31675;DHT22;18276;45.520;11.018;2023-06-14T07:12:43;23.30;77.60
31675;DHT22;18276;45.520;11.018;2023-06-14T07:15:10;23.60;76.90
31675;DHT22;18276;45.520;11.018;2023-06-14T07:17:37;23.80;76.10
31675;DHT22;18276;45.520;11.018;2023-06-14T07:20:04;24.10;75.00
31675;DHT22;18276;45.520;11.018;2023-06-14T07:22:34;24.30;73.20
31675;DHT22;18276;45.520;11.018;2023-06-14T07:25:01;24.50;71.80
31675;DHT22;18276;45.520;11.018;2023-06-14T07:27:29;24.60;70.60
31675;DHT22;18276;45.520;11.018;2023-06-14T07:29:56;24.60;70.00
31675;DHT22;18276;45.520;11.018;2023-06-14T07:32:23;24.60;69.40
31675;DHT22;18276;45.520;11.018;2023-06-14T07:34:50;24.60;69.40
31675;DHT22;18276;45.520;11.018;2023-06-14T07:37:17;24.40;70.20
31675;DHT22;18276;45.520;11.018;2023-06-14T07:39:44;24.50;70.50
31675;DHT22;18276;45.520;11.018;2023-06-14T07:42:11;24.50;70.20
31675;DHT22;18276;45.520;11.018;2023-06-14T07:44:38;24.70;69.50
31675;DHT22;18276;45.520;11.018;2023-06-14T07:47:05;24.90;68.60
31675;DHT22;18276;45.520;11.018;2023-06-14T07:49:32;25.10;67.90
31675;DHT22;18276;45.520;11.018;2023-06-14T07:51:59;25.20;68.00
31675;DHT22;18276;45.520;11.018;2023-06-14T07:54:26;25.50;67.10
31675;DHT22;18276;45.520;11.018;2023-06-14T07:56:54;26.00;65.90
31675;DHT22;18276;45.520;11.018;2023-06-14T07:59:22;27.10;63.20
31675;DHT22;18276;45.520;11.018;2023-06-14T08:01:49;28.30;59.30
31675;DHT22;18276;45.520;11.018;2023-06-14T08:04:16;29.30;56.40
31675;DHT22;18276;45.520;11.018;2023-06-14T08:06:43;30.50;54.90
31675;DHT22;18276;45.520;11.018;2023-06-14T08:09:12;31.40;52.20
31675;DHT22;18276;45.520;11.018;2023-06-14T08:11:39;31.80;49.10
31675;DHT22;18276;45.520;11.018;2023-06-14T08:14:06;31.70;49.20
31675;DHT22;18276;45.520;11.018;2023-06-14T08:16:33;31.60;49.00
31675;DHT22;18276;45.520;11.018;2023-06-14T08:19:00;31.20;49.30
31675;DHT22;18276;45.520;11.018;2023-06-14T08:21:27;30.60;49.50
31675;DHT22;18276;45.520;11.018;2023-06-14T08:23:57;29.70;49.90
31675;DHT22;18276;45.520;11.018;2023-06-14T08:26:24;28.70;52.40
31675;DHT22;18276;45.520;11.018;2023-06-14T08:28:55;28.30;53.50
31675;DHT22;18276;45.520;11.018;2023-06-14T08:31:22;27.80;54.70
31675;DHT22;18276;45.520;11.018;2023-06-14T08:33:50;27.60;55.30
31675;DHT22;18276;45.520;11.018;2023-06-14T08:36:17;27.40;56.20
31675;DHT22;18276;45.520;11.018;2023-06-14T08:38:44;27.30;56.20
31675;DHT22;18276;45.520;11.018;2023-06-14T08:41:11;27.10;57.00
31675;DHT22;18276;45.520;11.018;2023-06-14T08:43:40;26.90;58.30
31675;DHT22;18276;45.520;11.018;2023-06-14T08:46:07;26.70;58.20
31675;DHT22;18276;45.520;11.018;2023-06-14T08:48:37;26.60;59.10
31675;DHT22;18276;45.520;11.018;2023-06-14T08:51:04;26.60;59.10
31675;DHT22;18276;45.520;11.018;2023-06-14T08:53:31;26.60;58.20
31675;DHT22;18276;45.520;11.018;2023-06-14T08:56:04;26.40;58.30
31675;DHT22;18276;45.520;11.018;2023-06-14T08:58:32;26.20;58.90
31675;DHT22;18276;45.520;11.018;2023-06-14T09:01:01;26.10;59.50
31675;DHT22;18276;45.520;11.018;2023-06-14T09:03:28;26.10;59.50
31675;DHT22;18276;45.520;11.018;2023-06-14T09:05:58;26.20;59.40
31675;DHT22;18276;45.520;11.018;2023-06-14T09:08:28;26.20;61.00
31675;DHT22;18276;45.520;11.018;2023-06-14T09:10:57;26.10;60.50
31675;DHT22;18276;45.520;11.018;2023-06-14T09:13:26;26.20;59.80
31675;DHT22;18276;45.520;11.018;2023-06-14T09:15:57;26.30;58.90
31675;DHT22;18276;45.520;11.018;2023-06-14T09:18:40;26.30;58.90
31675;DHT22;18276;45.520;11.018;2023-06-14T09:21:08;26.40;58.80
31675;DHT22;18276;45.520;11.018;2023-06-14T09:23:39;26.50;58.60
31675;DHT22;18276;45.520;11.018;2023-06-14T09:26:11;26.50;58.10
31675;DHT22;18276;45.520;11.018;2023-06-14T09:28:56;26.60;57.90
31675;DHT22;18276;45.520;11.018;2023-06-14T09:31:24;26.50;58.40
31675;DHT22;18276;45.520;11.018;2023-06-14T09:33:51;26.60;57.90
31675;DHT22;18276;45.520;11.018;2023-06-14T09:36:21;26.70;57.70
31675;DHT22;18276;45.520;11.018;2023-06-14T09:38:52;26.50;56.40
31675;DHT22;18276;45.520;11.018;2023-06-14T09:41:20;26.40;57.40
31675;DHT22;18276;45.520;11.018;2023-06-14T09:43:47;26.50;57.80
31675;DHT22;18276;45.520;11.018;2023-06-14T09:46:14;26.50;57.80
31675;DHT22;18276;45.520;11.018;2023-06-14T09:48:41;26.60;57.50
31675;DHT22;18276;45.520;11.018;2023-06-14T09:51:10;26.70;57.00
31675;DHT22;18276;45.520;11.018;2023-06-14T09:53:38;26.90;56.70
31675;DHT22;18276;45.520;11.018;2023-06-14T09:56:07;27.00;54.60
31675;DHT22;18276;45.520;11.018;2023-06-14T09:58:34;27.10;53.90
31675;DHT22;18276;45.520;11.018;2023-06-14T10:01:03;27.40;54.10
31675;DHT22;18276;45.520;11.018;2023-06-14T10:03:32;27.60;54.00
31675;DHT22;18276;45.520;11.018;2023-06-14T10:06:19;27.60;52.80
31675;DHT22;18276;45.520;11.018;2023-06-14T10:08:52;27.60;52.60
31675;DHT22;18276;45.520;11.018;2023-06-14T10:11:18;27.70;52.90
31675;DHT22;18276;45.520;11.018;2023-06-14T10:13:46;28.10;52.60
31675;DHT22;18276;45.520;11.018;2023-06-14T10:21:16;28.60;50.60
31675;DHT22;18276;45.520;11.018;2023-06-14T10:23:45;28.60;51.00
31675;DHT22;18276;45.520;11.018;2023-06-14T10:26:19;28.60;50.60
31675;DHT22;18276;45.520;11.018;2023-06-14T10:28:55;28.60;50.80
31675;DHT22;18276;45.520;11.018;2023-06-14T10:31:23;28.80;51.00
31675;DHT22;18276;45.520;11.018;2023-06-14T10:34:06;28.90;49.70
31675;DHT22;18276;45.520;11.018;2023-06-14T10:36:33;29.00;49.80
31675;DHT22;18276;45.520;11.018;2023-06-14T10:39:06;29.00;49.70
31675;DHT22;18276;45.520;11.018;2023-06-14T10:41:34;29.10;47.70
31675;DHT22;18276;45.520;11.018;2023-06-14T10:46:45;30.00;45.80
31675;DHT22;18276;45.520;11.018;2023-06-14T10:49:15;30.60;44.40
31675;DHT22;18276;45.520;11.018;2023-06-14T10:51:44;30.70;44.70
31675;DHT22;18276;45.520;11.018;2023-06-14T10:54:12;30.50;44.90
31675;DHT22;18276;45.520;11.018;2023-06-14T10:56:46;30.10;44.90
31675;DHT22;18276;45.520;11.018;2023-06-14T10:59:14;29.80;45.20
31675;DHT22;18276;45.520;11.018;2023-06-14T11:01:48;29.40;46.10
31675;DHT22;18276;45.520;11.018;2023-06-14T11:04:18;29.20;46.50
31675;DHT22;18276;45.520;11.018;2023-06-14T11:06:47;29.10;46.50
31675;DHT22;18276;45.520;11.018;2023-06-14T11:11:45;29.10;46.20
31675;DHT22;18276;45.520;11.018;2023-06-14T11:14:12;29.30;46.40
31675;DHT22;18276;45.520;11.018;2023-06-14T11:16:40;29.50;45.80
31675;DHT22;18276;45.520;11.018;2023-06-14T11:19:08;29.90;45.20
31675;DHT22;18276;45.520;11.018;2023-06-14T11:21:39;30.40;44.20
31675;DHT22;18276;45.520;11.018;2023-06-14T11:24:09;30.80;43.50
31675;DHT22;18276;45.520;11.018;2023-06-14T11:26:37;30.90;43.10
31675;DHT22;18276;45.520;11.018;2023-06-14T11:29:04;30.80;43.60
31675;DHT22;18276;45.520;11.018;2023-06-14T11:31:31;30.50;43.80
31675;DHT22;18276;45.520;11.018;2023-06-14T11:33:58;30.30;44.00
31675;DHT22;18276;45.520;11.018;2023-06-14T11:36:29;30.00;44.60
31675;DHT22;18276;45.520;11.018;2023-06-14T11:38:58;29.80;45.50
31675;DHT22;18276;45.520;11.018;2023-06-14T11:41:25;29.50;45.60
31675;DHT22;18276;45.520;11.018;2023-06-14T11:43:52;29.20;45.80
31675;DHT22;18276;45.520;11.018;2023-06-14T11:46:19;28.90;46.30
31675;DHT22;18276;45.520;11.018;2023-06-14T11:48:50;28.70;46.10
31675;DHT22;18276;45.520;11.018;2023-06-14T11:51:18;28.60;46.50
31675;DHT22;18276;45.520;11.018;2023-06-14T11:53:45;28.70;46.40
31675;DHT22;18276;45.520;11.018;2023-06-14T11:56:13;28.80;46.60
31675;DHT22;18276;45.520;11.018;2023-06-14T11:58:43;28.90;46.10
31675;DHT22;18276;45.520;11.018;2023-06-14T12:01:14;28.80;45.80
31675;DHT22;18276;45.520;11.018;2023-06-14T12:03:46;28.90;46.60
31675;DHT22;18276;45.520;11.018;2023-06-14T12:06:15;29.10;46.60
31675;DHT22;18276;45.520;11.018;2023-06-14T12:08:42;29.20;46.10
31675;DHT22;18276;45.520;11.018;2023-06-14T12:11:12;29.30;45.70
31675;DHT22;18276;45.520;11.018;2023-06-14T12:13:41;29.50;45.40
31675;DHT22;18276;45.520;11.018;2023-06-14T12:16:08;29.70;45.60
31675;DHT22;18276;45.520;11.018;2023-06-14T12:18:36;29.50;44.50
31675;DHT22;18276;45.520;11.018;2023-06-14T12:21:04;29.40;44.30
31675;DHT22;18276;45.520;11.018;2023-06-14T12:26:14;29.00;45.60
31675;DHT22;18276;45.520;11.018;2023-06-14T12:28:42;28.90;46.30
31675;DHT22;18276;45.520;11.018;2023-06-14T12:31:10;28.90;46.70
31675;DHT22;18276;45.520;11.018;2023-06-14T12:33:39;28.90;47.00
31675;DHT22;18276;45.520;11.018;2023-06-14T12:36:09;28.80;47.00
31675;DHT22;18276;45.520;11.018;2023-06-14T12:38:37;28.80;47.00
31675;DHT22;18276;45.520;11.018;2023-06-14T12:41:04;28.90;46.50
31675;DHT22;18276;45.520;11.018;2023-06-14T12:43:31;28.90;48.20
31675;DHT22;18276;45.520;11.018;2023-06-14T12:45:58;28.90;47.80
31675;DHT22;18276;45.520;11.018;2023-06-14T12:48:26;29.00;47.80
31675;DHT22;18276;45.520;11.018;2023-06-14T12:50:54;29.00;47.50
31675;DHT22;18276;45.520;11.018;2023-06-14T12:53:20;29.10;47.90
31675;DHT22;18276;45.520;11.018;2023-06-14T12:55:49;29.10;48.30
31675;DHT22;18276;45.520;11.018;2023-06-14T12:58:16;29.00;48.30
31675;DHT22;18276;45.520;11.018;2023-06-14T13:00:44;29.00;47.80
31675;DHT22;18276;45.520;11.018;2023-06-14T13:03:11;29.00;47.20
31675;DHT22;18276;45.520;11.018;2023-06-14T13:05:38;29.00;47.30
31675;DHT22;18276;45.520;11.018;2023-06-14T13:08:07;29.00;47.00
31675;DHT22;18276;45.520;11.018;2023-06-14T13:10:35;28.80;47.60
31675;DHT22;18276;45.520;11.018;2023-06-14T13:13:02;28.70;47.80
31675;DHT22;18276;45.520;11.018;2023-06-14T13:15:29;28.70;47.60
31675;DHT22;18276;45.520;11.018;2023-06-14T13:17:56;28.70;47.30
31675;DHT22;18276;45.520;11.018;2023-06-14T13:20:23;28.70;47.50
31675;DHT22;18276;45.520;11.018;2023-06-14T13:22:50;28.70;48.40
31675;DHT22;18276;45.520;11.018;2023-06-14T13:25:17;28.70;47.80
31675;DHT22;18276;45.520;11.018;2023-06-14T13:27:44;28.70;47.60
31675;DHT22;18276;45.520;11.018;2023-06-14T13:30:12;28.70;47.70
31675;DHT22;18276;45.520;11.018;2023-06-14T13:32:39;28.70;48.00
31675;DHT22;18276;45.520;11.018;2023-06-14T13:35:06;28.50;48.00
31675;DHT22;18276;45.520;11.018;2023-06-14T13:37:33;28.40;48.10
31675;DHT22;18276;45.520;11.018;2023-06-14T13:40:00;28.30;48.40
31675;DHT22;18276;45.520;11.018;2023-06-14T13:42:27;28.20;47.80
31675;DHT22;18276;45.520;11.018;2023-06-14T13:44:54;28.10;47.40
31675;DHT22;18276;45.520;11.018;2023-06-14T13:47:21;28.00;47.30
31675;DHT22;18276;45.520;11.018;2023-06-14T13:49:48;28.10;47.00
31675;DHT22;18276;45.520;11.018;2023-06-14T13:52:15;28.20;46.60
31675;DHT22;18276;45.520;11.018;2023-06-14T13:54:42;28.20;47.10
31675;DHT22;18276;45.520;11.018;2023-06-14T13:57:11;28.20;47.00
31675;DHT22;18276;45.520;11.018;2023-06-14T13:59:39;28.10;46.70
31675;DHT22;18276;45.520;11.018;2023-06-14T14:02:07;27.90;45.90
31675;DHT22;18276;45.520;11.018;2023-06-14T14:04:34;27.80;46.40
31675;DHT22;18276;45.520;11.018;2023-06-14T14:07:02;27.80;47.20
31675;DHT22;18276;45.520;11.018;2023-06-14T14:09:30;27.90;46.80
31675;DHT22;18276;45.520;11.018;2023-06-14T14:11:57;27.90;46.50
31675;DHT22;18276;45.520;11.018;2023-06-14T14:14:24;27.80;46.30
31675;DHT22;18276;45.520;11.018;2023-06-14T14:16:51;27.70;46.50
31675;DHT22;18276;45.520;11.018;2023-06-14T14:19:20;27.70;46.70
31675;DHT22;18276;45.520;11.018;2023-06-14T14:21:47;27.70;47.20
31675;DHT22;18276;45.520;11.018;2023-06-14T14:24:14;27.80;47.80
31675;DHT22;18276;45.520;11.018;2023-06-14T14:26:42;27.70;47.60
31675;DHT22;18276;45.520;11.018;2023-06-14T14:29:09;27.60;47.80
31675;DHT22;18276;45.520;11.018;2023-06-14T14:31:38;27.60;48.20
31675;DHT22;18276;45.520;11.018;2023-06-14T14:34:05;27.70;48.50
31675;DHT22;18276;45.520;11.018;2023-06-14T14:36:32;27.70;48.40
31675;DHT22;18276;45.520;11.018;2023-06-14T14:39:01;27.70;48.10
31675;DHT22;18276;45.520;11.018;2023-06-14T14:41:28;27.70;47.40
31675;DHT22;18276;45.520;11.018;2023-06-14T14:43:54;27.70;47.70
31675;DHT22;18276;45.520;11.018;2023-06-14T14:46:21;27.60;47.20
31675;DHT22;18276;45.520;11.018;2023-06-14T14:48:48;27.40;47.90
31675;DHT22;18276;45.520;11.018;2023-06-14T14:51:15;27.40;47.90
31675;DHT22;18276;45.520;11.018;2023-06-14T14:53:42;27.40;47.60
31675;DHT22;18276;45.520;11.018;2023-06-14T14:56:09;27.40;47.70
31675;DHT22;18276;45.520;11.018;2023-06-14T14:58:36;27.50;47.60
31675;DHT22;18276;45.520;11.018;2023-06-14T15:01:04;27.40;48.20
31675;DHT22;18276;45.520;11.018;2023-06-14T15:03:32;27.40;48.40
31675;DHT22;18276;45.520;11.018;2023-06-14T15:06:19;27.40;48.70
31675;DHT22;18276;45.520;11.018;2023-06-14T15:08:46;27.40;49.40
31675;DHT22;18276;45.520;11.018;2023-06-14T15:11:13;27.50;49.60
31675;DHT22;18276;45.520;11.018;2023-06-14T15:13:40;27.50;49.30
31675;DHT22;18276;45.520;11.018;2023-06-14T15:16:07;27.40;49.50
31675;DHT22;18276;45.520;11.018;2023-06-14T15:18:34;27.40;49.60
31675;DHT22;18276;45.520;11.018;2023-06-14T15:21:01;27.40;49.30
31675;DHT22;18276;45.520;11.018;2023-06-14T15:23:27;27.50;49.20
31675;DHT22;18276;45.520;11.018;2023-06-14T15:25:54;27.60;49.20
31675;DHT22;18276;45.520;11.018;2023-06-14T15:28:21;27.70;48.90
31675;DHT22;18276;45.520;11.018;2023-06-14T15:30:50;27.70;49.00
31675;DHT22;18276;45.520;11.018;2023-06-14T15:33:17;27.70;48.90
31675;DHT22;18276;45.520;11.018;2023-06-14T15:35:44;27.80;49.00
31675;DHT22;18276;45.520;11.018;2023-06-14T15:38:11;27.90;48.50
31675;DHT22;18276;45.520;11.018;2023-06-14T15:40:38;27.80;48.70